Terminal Aerodrome Forecast
Issued by NWS

Home | Current Version | Previous Version | Text Only | Print | Product List | Glossary On
Versions: 1 2 3 4 5 6 7 8 9 10 11 12 13 14 15 16 17 18 19 20 21 22 23 24 25 26 27 28
000
FTUS45 KPIH 200520
TAFSUN
TAF
KSUN 200520Z 2006/2106 30006KT P6SM -SHRASN SCT015 BKN050
      TEMPO 2008/2012 2SM -SN BR SCT008 OVC010
     FM201200 30006KT 5SM -RASN BR SCT010 OVC020
     FM201700 VRB06KT 6SM -SHRA BR SCT010 OVC020
      AMD LTD TO CLD VIS AND WIND TIL 201400=

USA.gov is the U.S. government's official web portal to all federal, state and local government web resources and services.